Time;durP1;ratioP1;P1;durP2;ratioP2;P2;SDS_P1;SDS_P2;PMS_P1;PMS_P2;Temp;Humidity;BMP_temperature;BMP_pressure;BME280_temperature;BME280_humidity;BME280_pressure;Samples;Min_cycle;Max_cycle;Signal;HPM_P1;HPM_P2
2024/01/10 00:01:17;;;;;;;0.10;0.10;;;;;;;1.25;80.87;101609.75;4959655;28;20014;-76
2024/01/10 00:03:43;;;;;;;0.00;0.00;;;;;;;1.18;80.80;101599.69;4961401;28;20113;-75
2024/01/10 00:06:09;;;;;;;0.10;0.10;;;;;;;1.03;80.61;101583.38;4937411;28;20018;-75
2024/01/10 00:08:35;;;;;;;0.00;0.00;;;;;;;1.05;79.97;101596.69;4964906;28;20022;-76
2024/01/10 00:11:00;;;;;;;0.00;0.00;;;;;;;0.85;79.81;101580.94;4957343;28;20034;-75
2024/01/10 00:13:27;;;;;;;0.00;0.00;;;;;;;0.75;80.09;101574.06;4954853;28;20022;-74
2024/01/10 00:15:53;;;;;;;0.00;0.00;;;;;;;0.78;80.81;101582.63;4944508;28;20038;-75
2024/01/10 00:18:18;;;;;;;0.00;0.00;;;;;;;0.78;80.66;101596.09;4963378;28;20540;-75
2024/01/10 00:20:44;;;;;;;0.00;0.00;;;;;;;0.67;81.04;101599.16;4964587;28;20023;-76
2024/01/10 00:23:09;;;;;;;0.00;0.00;;;;;;;0.38;81.12;101579.03;4968405;28;20030;-74
2024/01/10 00:25:35;;;;;;;0.10;0.10;;;;;;;0.32;81.56;101580.56;4964931;28;20036;-76
2024/01/10 00:28:00;;;;;;;0.00;0.00;;;;;;;0.15;81.56;101579.72;4935260;28;20477;-74
2024/01/10 00:30:26;;;;;;;0.00;0.00;;;;;;;-0.01;80.96;101575.19;4944975;28;20027;-76
2024/01/10 00:32:51;;;;;;;0.00;0.00;;;;;;;-0.08;81.33;101568.78;4961310;28;20464;-76
2024/01/10 00:35:19;;;;;;;0.00;0.00;;;;;;;-0.23;81.62;101571.31;4962955;28;20784;-75
2024/01/10 00:37:45;;;;;;;0.00;0.00;;;;;;;-0.36;81.02;101570.97;4986748;28;20027;-76
2024/01/10 00:40:10;;;;;;;0.00;0.00;;;;;;;-0.42;81.79;101577.00;4952994;28;20053;-77
2024/01/10 00:42:36;;;;;;;0.00;0.00;;;;;;;-0.69;82.10;101538.63;4946666;28;20030;-76
2024/01/10 00:45:01;;;;;;;0.10;0.10;;;;;;;-0.48;82.04;101577.63;4952441;28;20042;-76
2024/01/10 00:47:26;;;;;;;0.10;0.10;;;;;;;-0.55;82.32;101575.63;4949625;28;20056;-76
2024/01/10 00:49:52;;;;;;;0.10;0.10;;;;;;;-0.66;82.89;101559.78;4969658;28;20169;-76
2024/01/10 00:52:19;;;;;;;0.00;0.00;;;;;;;-0.86;82.56;101556.56;4970611;28;20038;-78
2024/01/10 00:54:45;;;;;;;0.10;0.10;;;;;;;-0.82;83.01;101570.50;4967249;28;20038;-78
2024/01/10 00:57:11;;;;;;;0.00;0.00;;;;;;;-0.86;82.93;101580.75;4945993;28;20170;-78
2024/01/10 00:59:36;;;;;;;0.00;0.00;;;;;;;-0.98;82.87;101577.50;4943300;28;20069;-77
2024/01/10 01:02:02;;;;;;;0.00;0.00;;;;;;;-1.17;82.88;101562.47;4938317;28;20073;-73
2024/01/10 01:04:28;;;;;;;0.10;0.10;;;;;;;-1.21;83.83;101571.88;4948462;28;20066;-74
2024/01/10 01:06:54;;;;;;;0.10;0.10;;;;;;;-1.39;83.40;101541.56;4964084;28;20033;-77
2024/01/10 01:09:19;;;;;;;0.10;0.10;;;;;;;-1.37;83.61;101567.25;4977824;28;20130;-76
2024/01/10 01:11:44;;;;;;;0.08;0.08;;;;;;;-1.41;84.62;101560.50;4957008;28;20031;-75
2024/01/10 01:14:10;;;;;;;0.10;0.10;;;;;;;-1.33;83.78;101590.09;4935384;28;20029;-75
2024/01/10 01:16:35;;;;;;;0.10;0.10;;;;;;;-1.34;84.35;101588.41;4957466;28;20035;-76
2024/01/10 01:19:01;;;;;;;0.10;0.10;;;;;;;-1.51;84.23;101574.03;4952957;28;20039;-75
2024/01/10 01:21:26;;;;;;;0.10;0.10;;;;;;;-1.51;84.29;101591.97;4962581;28;20038;-75
2024/01/10 01:23:51;;;;;;;0.08;0.08;;;;;;;-1.54;84.44;101581.56;4942415;28;20023;-75
2024/01/10 01:26:17;;;;;;;0.03;0.03;;;;;;;-1.62;85.09;101575.16;4957841;28;20046;-77
2024/01/10 01:28:42;;;;;;;0.10;0.10;;;;;;;-1.58;84.44;101595.31;4956650;28;20033;-77
2024/01/10 01:31:18;;;;;;;0.10;0.10;;;;;;;-1.76;84.94;101576.53;4966860;28;20030;-76
2024/01/10 01:33:46;;;;;;;0.10;0.10;;;;;;;-1.97;84.37;101552.78;4948345;28;20693;-76
2024/01/10 01:36:19;;;;;;;0.10;0.10;;;;;;;-1.73;85.56;101593.34;4980031;28;20489;-75
2024/01/10 01:38:44;;;;;;;0.00;0.00;;;;;;;-1.84;85.11;101571.16;4957275;28;20106;-75
2024/01/10 01:41:10;;;;;;;0.10;0.10;;;;;;;-2.09;85.19;101529.03;4959410;28;20470;-75
2024/01/10 01:43:41;;;;;;;0.10;0.10;;;;;;;-1.83;84.54;101571.97;4963364;28;20026;-76
2024/01/10 01:46:07;;;;;;;0.10;0.10;;;;;;;-2.01;85.17;101546.03;4969530;28;20158;-75
2024/01/10 01:48:33;;;;;;;0.10;0.10;;;;;;;-1.96;85.71;101556.28;4973248;28;20264;-76
2024/01/10 01:51:03;;;;;;;0.00;0.00;;;;;;;-1.91;85.78;101539.72;4963611;28;20077;-75
2024/01/10 01:53:29;;;;;;;0.00;0.00;;;;;;;-1.53;85.84;101578.72;4977606;28;20038;-73
2024/01/10 01:55:55;;;;;;;0.10;0.10;;;;;;;-1.48;85.77;101565.66;4975790;28;20729;-74
2024/01/10 01:58:25;;;;;;;0.10;0.10;;;;;;;-1.27;84.92;101589.44;4964805;28;20531;-74
2024/01/10 02:00:51;;;;;;;0.10;0.10;;;;;;;-1.27;85.07;101576.03;4956314;28;20134;-75
2024/01/10 02:03:21;;;;;;;0.10;0.10;;;;;;;-1.33;84.88;101560.56;4962300;28;20165;-75
2024/01/10 02:05:46;;;;;;;0.10;0.10;;;;;;;-1.10;84.00;101584.97;4961569;28;20027;-76
2024/01/10 02:08:11;;;;;;;0.10;0.10;;;;;;;-1.25;84.37;101549.03;4935609;28;20103;-76
2024/01/10 02:10:37;;;;;;;0.00;0.00;;;;;;;-1.15;84.38;101565.03;4979360;28;20027;-76
2024/01/10 02:13:03;;;;;;;0.10;0.10;;;;;;;-1.18;84.28;101559.94;4940526;28;20023;-75
2024/01/10 02:15:29;;;;;;;0.00;0.00;;;;;;;-1.34;85.04;101540.09;4950820;28;20496;-75
2024/01/10 02:17:54;;;;;;;0.00;0.00;;;;;;;-1.21;84.69;101565.63;4958078;28;20027;-75
2024/01/10 02:20:23;;;;;;;0.10;0.10;;;;;;;-1.15;85.05;101570.38;4942056;28;20037;-75
2024/01/10 02:22:51;;;;;;;0.10;0.10;;;;;;;-1.00;84.77;101568.75;4952250;28;20066;-75
2024/01/10 02:25:16;;;;;;;0.10;0.10;;;;;;;-0.98;84.58;101561.41;4949280;28;20038;-77
2024/01/10 02:27:42;;;;;;;0.00;0.00;;;;;;;-0.94;84.07;101568.09;4959093;28;20038;-75
2024/01/10 02:30:08;;;;;;;0.00;0.00;;;;;;;-0.98;84.64;101582.03;4949894;28;20043;-76
2024/01/10 02:32:35;;;;;;;0.10;0.10;;;;;;;-1.09;84.89;101567.06;4952204;28;20030;-75
2024/01/10 02:35:00;;;;;;;0.00;0.00;;;;;;;-1.08;85.74;101560.66;4950183;28;20026;-75
2024/01/10 02:37:26;;;;;;;0.00;0.00;;;;;;;-1.13;85.65;101563.00;4953622;28;20066;-75
2024/01/10 02:39:51;;;;;;;0.00;0.00;;;;;;;-1.24;86.21;101550.72;4940861;28;20054;-74
2024/01/10 02:42:30;;;;;;;;;;;;;;;;;;;;;
2024/01/10 02:44:56;;;;;;;0.10;0.10;;;;;;;-1.39;86.64;101553.13;4983957;28;20029;-76
2024/01/10 02:47:21;;;;;;;0.10;0.10;;;;;;;-1.52;87.40;101540.19;4971709;28;20110;-77
2024/01/10 02:49:47;;;;;;;0.00;0.00;;;;;;;-1.41;87.28;101555.97;4962978;28;20569;-75
2024/01/10 02:52:12;;;;;;;0.00;0.00;;;;;;;-1.31;86.87;101565.78;4931490;28;20039;-75
2024/01/10 02:54:38;;;;;;;0.10;0.10;;;;;;;-1.18;87.37;101570.69;4939831;28;20165;-76
2024/01/10 02:57:03;;;;;;;0.00;0.00;;;;;;;-1.20;86.86;101551.22;4959092;28;20023;-76
2024/01/10 02:59:29;;;;;;;0.10;0.10;;;;;;;-1.24;87.01;101546.19;4959783;28;20030;-76
2024/01/10 03:01:54;;;;;;;0.10;0.10;;;;;;;-1.26;86.02;101556.22;4941328;28;20030;-75
2024/01/10 03:04:20;;;;;;;0.08;0.08;;;;;;;-1.51;87.09;101536.47;4964081;28;20027;-75
2024/01/10 03:06:47;;;;;;;0.10;0.10;;;;;;;-1.51;86.94;101549.06;4965388;28;20045;-75
2024/01/10 03:09:13;;;;;;;0.00;0.00;;;;;;;-1.60;87.70;101562.41;4954937;28;20037;-76
2024/01/10 03:11:38;;;;;;;0.00;0.00;;;;;;;-1.66;87.77;101562.22;4936026;28;20031;-74
2024/01/10 03:14:08;;;;;;;0.10;0.10;;;;;;;-1.67;87.39;101572.09;4942710;28;20085;-74
2024/01/10 03:16:34;;;;;;;0.10;0.10;;;;;;;-1.74;87.37;101575.56;4968106;28;20050;-78
2024/01/10 03:19:00;;;;;;;0.00;0.00;;;;;;;-1.94;88.20;101568.53;4954938;28;20022;-76
2024/01/10 03:21:26;;;;;;;0.00;0.00;;;;;;;-2.03;88.23;101555.22;4966484;28;20106;-74
2024/01/10 03:23:53;;;;;;;0.00;0.00;;;;;;;-1.95;87.65;101574.91;4955628;28;20121;-76
2024/01/10 03:26:19;;;;;;;0.10;0.10;;;;;;;-2.08;88.56;101569.09;4974133;28;20343;-77
2024/01/10 03:28:44;;;;;;;0.00;0.00;;;;;;;-2.16;87.94;101571.69;4951363;28;20031;-76
2024/01/10 03:31:13;;;;;;;0.10;0.10;;;;;;;-2.28;88.24;101563.91;4928680;28;20050;-76
2024/01/10 03:33:38;;;;;;;0.00;0.00;;;;;;;-2.31;88.19;101572.25;4936739;28;20097;-75
2024/01/10 03:36:05;;;;;;;0.10;0.10;;;;;;;-2.39;88.54;101571.34;4955546;28;20037;-76
2024/01/10 03:38:30;;;;;;;0.10;0.10;;;;;;;-2.43;89.24;101568.09;4966908;28;20023;-77
2024/01/10 03:40:56;;;;;;;0.10;0.10;;;;;;;-2.51;88.44;101560.84;4957224;28;20021;-75
2024/01/10 03:43:21;;;;;;;0.10;0.10;;;;;;;-2.46;89.01;101568.41;4961966;28;20377;-75
2024/01/10 03:45:47;;;;;;;0.10;0.10;;;;;;;-2.55;89.06;101566.66;4957249;28;20041;-75
2024/01/10 03:48:12;;;;;;;0.10;0.10;;;;;;;-2.46;89.21;101579.13;4963059;28;20038;-75
2024/01/10 03:50:38;;;;;;;0.10;0.10;;;;;;;-2.56;88.94;101560.44;4954260;28;20082;-75
2024/01/10 03:53:03;;;;;;;0.10;0.10;;;;;;;-2.50;89.44;101575.06;4933433;28;20050;-76
2024/01/10 03:55:29;;;;;;;0.10;0.10;;;;;;;-2.48;90.44;101573.94;4962118;28;20125;-75
2024/01/10 03:57:56;;;;;;;0.10;0.10;;;;;;;-2.57;90.25;101557.91;4945711;28;21450;-75
2024/01/10 04:00:21;;;;;;;0.00;0.00;;;;;;;-2.59;89.75;101559.91;4948722;28;20026;-75
2024/01/10 04:02:46;;;;;;;0.10;0.10;;;;;;;-2.71;90.49;101557.44;4943268;28;20441;-75
2024/01/10 04:05:13;;;;;;;0.10;0.10;;;;;;;-2.72;90.31;101560.28;4946931;28;20031;-75
2024/01/10 04:07:43;;;;;;;0.10;0.10;;;;;;;-2.65;90.37;101562.19;4952886;28;20538;-76
2024/01/10 04:10:10;;;;;;;0.10;0.10;;;;;;;-2.64;91.03;101563.88;4962171;28;20659;-75
2024/01/10 04:12:39;;;;;;;0.10;0.10;;;;;;;-2.57;91.49;101565.94;4974842;28;20015;-76
2024/01/10 04:15:05;;;;;;;0.10;0.10;;;;;;;-2.56;90.13;101560.44;4987036;28;20017;-75
2024/01/10 04:17:30;;;;;;;0.10;0.10;;;;;;;-2.64;91.45;101563.88;4971396;28;20023;-76
2024/01/10 04:19:56;;;;;;;0.10;0.10;;;;;;;-2.67;90.67;101553.47;4962844;28;20027;-76
2024/01/10 04:22:23;;;;;;;0.00;0.00;;;;;;;-2.66;91.20;101563.22;4956351;28;20608;-74
2024/01/10 04:24:49;;;;;;;0.10;0.10;;;;;;;-2.83;91.50;101542.59;4960782;28;20026;-75
2024/01/10 04:27:15;;;;;;;0.10;0.10;;;;;;;-2.82;91.50;101544.25;4955869;28;20031;-75
2024/01/10 04:29:40;;;;;;;0.10;0.10;;;;;;;-2.92;92.01;101543.47;4947574;28;20035;-76
2024/01/10 04:32:06;;;;;;;0.10;0.10;;;;;;;-2.89;92.47;101554.75;4953835;28;20382;-77
2024/01/10 04:34:31;;;;;;;0.10;0.10;;;;;;;-2.89;92.06;101551.22;4973055;28;20078;-77
2024/01/10 04:36:57;;;;;;;0.10;0.10;;;;;;;-2.83;92.41;101564.84;4940852;28;20041;-76
2024/01/10 04:39:22;;;;;;;0.10;0.10;;;;;;;-2.81;92.32;101559.34;4948868;28;20114;-75
2024/01/10 04:41:48;;;;;;;0.10;0.10;;;;;;;-2.85;92.96;101540.06;4935941;28;20504;-75
2024/01/10 04:44:13;;;;;;;0.10;0.10;;;;;;;-2.74;92.53;101552.41;4955326;28;20039;-75
2024/01/10 04:46:40;;;;;;;0.10;0.10;;;;;;;-2.82;92.44;101549.63;4940897;28;20029;-76
2024/01/10 04:49:06;;;;;;;0.10;0.10;;;;;;;-2.83;93.49;101559.50;4967776;28;20026;-76
2024/01/10 04:51:32;;;;;;;0.00;0.00;;;;;;;-2.93;93.36;101547.16;4971167;28;20049;-76
2024/01/10 04:53:58;;;;;;;0.10;0.10;;;;;;;-2.99;92.49;101549.44;4971003;28;20410;-76
2024/01/10 04:56:23;;;;;;;0.10;0.10;;;;;;;-2.79;94.03;101559.19;4969483;28;20026;-76
2024/01/10 04:58:51;;;;;;;0.10;0.10;;;;;;;-2.88;94.11;101552.91;4967602;28;20397;-77
2024/01/10 05:01:17;;;;;;;0.10;0.10;;;;;;;-2.76;93.83;101565.09;4959881;28;20093;-76
2024/01/10 05:03:45;;;;;;;0.10;0.10;;;;;;;-2.59;93.75;101565.28;4982477;28;20057;-76
2024/01/10 05:06:14;;;;;;;0.10;0.10;;;;;;;-2.53;93.48;101553.94;4959795;28;20034;-76
2024/01/10 05:08:39;;;;;;;0.10;0.10;;;;;;;-2.32;93.63;101562.53;4956716;28;20597;-76
2024/01/10 05:11:05;;;;;;;0.10;0.10;;;;;;;-2.15;93.33;101568.03;4978706;28;20031;-75
2024/01/10 05:13:30;;;;;;;0.10;0.10;;;;;;;-2.02;93.38;101563.09;4960753;28;20477;-75
2024/01/10 05:15:56;;;;;;;0.10;0.10;;;;;;;-2.07;92.94;101552.03;4958990;28;20038;-75
2024/01/10 05:18:21;;;;;;;0.10;0.10;;;;;;;-2.01;92.55;101554.06;4959164;28;20037;-74
2024/01/10 05:20:47;;;;;;;0.10;0.10;;;;;;;-1.83;93.14;101567.44;4983386;28;20014;-76
2024/01/10 05:23:13;;;;;;;0.00;0.00;;;;;;;-1.77;92.61;101557.94;4949688;28;20043;-75
2024/01/10 05:25:39;;;;;;;0.00;0.00;;;;;;;-1.72;92.53;101541.38;4951369;28;20433;-74
2024/01/10 05:28:05;;;;;;;0.10;0.10;;;;;;;-1.56;92.41;101551.34;4959259;28;20287;-74
2024/01/10 05:30:31;;;;;;;0.10;0.10;;;;;;;-1.54;92.60;101549.38;4946202;28;20029;-75
2024/01/10 05:32:58;;;;;;;0.10;0.10;;;;;;;-1.51;92.88;101554.41;4962549;28;20030;-76
2024/01/10 05:35:25;;;;;;;0.10;0.10;;;;;;;-1.51;92.05;101554.41;4947749;28;20034;-75
2024/01/10 05:37:51;;;;;;;0.10;0.10;;;;;;;-1.54;92.25;101560.09;4955841;28;20017;-74
2024/01/10 05:40:16;;;;;;;0.00;0.00;;;;;;;-1.58;92.90;101543.47;4957012;28;20131;-74
2024/01/10 05:42:41;;;;;;;0.10;0.10;;;;;;;-1.73;92.63;101540.53;4970806;28;20038;-74
2024/01/10 05:45:07;;;;;;;0.00;0.00;;;;;;;-1.82;92.77;101544.16;4968386;28;20039;-76
2024/01/10 05:47:33;;;;;;;0.10;0.10;;;;;;;-1.84;92.03;101554.19;4946797;28;20023;-76
2024/01/10 05:49:58;;;;;;;0.10;0.10;;;;;;;-1.96;92.92;101559.81;4960549;28;20038;-75
2024/01/10 05:52:24;;;;;;;0.00;0.00;;;;;;;-1.97;92.42;101550.09;4943528;28;20503;-76
2024/01/10 05:54:49;;;;;;;0.10;0.10;;;;;;;-1.99;93.37;101544.03;4962417;28;20074;-76
2024/01/10 05:57:15;;;;;;;0.10;0.10;;;;;;;-2.02;92.84;101540.84;4962977;28;20045;-76
2024/01/10 05:59:41;;;;;;;0.10;0.10;;;;;;;-2.00;92.90;101538.81;4954664;28;20089;-75
2024/01/10 06:02:06;;;;;;;0.00;0.00;;;;;;;-1.97;92.62;101539.38;4954925;28;20050;-76
2024/01/10 06:04:32;;;;;;;0.00;0.00;;;;;;;-2.06;92.32;101528.72;4960260;28;20038;-76
2024/01/10 06:07:00;;;;;;;0.10;0.10;;;;;;;-1.94;92.29;101557.81;4956978;28;20027;-76
2024/01/10 06:09:27;;;;;;;0.00;0.00;;;;;;;-2.08;92.66;101531.56;4986259;28;20006;-74
2024/01/10 06:11:55;;;;;;;0.10;0.10;;;;;;;-2.14;92.90;101532.19;4969569;28;20019;-74
2024/01/10 06:14:20;;;;;;;0.10;0.10;;;;;;;-2.03;92.09;101544.50;4968245;28;20098;-75
2024/01/10 06:16:46;;;;;;;0.10;0.10;;;;;;;-2.08;93.30;101544.97;4953442;28;20465;-74
2024/01/10 06:19:11;;;;;;;0.00;0.00;;;;;;;-2.09;92.89;101550.50;4954879;28;20237;-75
2024/01/10 06:21:40;;;;;;;0.10;0.10;;;;;;;-2.16;92.88;101555.63;4960363;28;20026;-74
2024/01/10 06:24:08;;;;;;;0.10;0.10;;;;;;;-2.30;93.66;101541.78;4953026;28;20055;-76
2024/01/10 06:26:34;;;;;;;0.10;0.10;;;;;;;-2.49;92.23;101528.53;4987026;28;20149;-76
2024/01/10 06:28:59;;;;;;;0.10;0.10;;;;;;;-2.50;93.55;101532.22;4948886;28;20477;-76
2024/01/10 06:31:28;;;;;;;0.00;0.00;;;;;;;-2.44;92.90;101547.66;4960660;28;20437;-75
2024/01/10 06:33:53;;;;;;;0.10;0.10;;;;;;;-2.42;93.31;101561.75;4953383;28;20153;-73
2024/01/10 06:36:18;;;;;;;0.10;0.10;;;;;;;-2.42;93.95;101569.81;4974885;28;20169;-77
2024/01/10 06:38:46;;;;;;;0.10;0.10;;;;;;;-2.65;93.36;101530.06;4961386;28;20442;-74
2024/01/10 06:41:13;;;;;;;0.10;0.10;;;;;;;-2.60;93.70;101552.88;4956854;28;20093;-74
2024/01/10 06:44:03;;;;;;;0.00;0.00;;;;;;;-2.64;93.92;101553.19;4970167;28;20067;-75
2024/01/10 06:46:35;;;;;;;;;;;;;;;;;;;;;
2024/01/10 06:49:01;;;;;;;0.10;0.10;;;;;;;-2.63;94.06;101565.56;4953376;28;20033;-75
2024/01/10 06:51:27;;;;;;;0.10;0.10;;;;;;;-2.65;94.11;101578.25;4933495;28;20110;-74
2024/01/10 06:53:53;;;;;;;0.10;0.10;;;;;;;-2.78;93.76;101561.72;4967041;28;20118;-74
2024/01/10 06:56:18;;;;;;;0.00;0.00;;;;;;;-2.83;93.73;101564.03;4942473;28;20030;-74
2024/01/10 06:58:44;;;;;;;0.10;0.10;;;;;;;-2.89;93.87;101562.78;4966001;28;20031;-75
2024/01/10 07:01:13;;;;;;;0.10;0.10;;;;;;;-2.91;94.53;101575.44;4958347;28;20031;-74
2024/01/10 07:03:40;;;;;;;0.10;0.10;;;;;;;-2.98;94.28;101569.00;4954950;28;20027;-75
2024/01/10 07:06:05;;;;;;;0.08;0.08;;;;;;;-2.93;93.98;101573.94;4947255;28;20357;-74
2024/01/10 07:08:31;;;;;;;0.10;0.10;;;;;;;-2.96;94.14;101574.22;4964798;28;20116;-74
2024/01/10 07:10:56;;;;;;;0.00;0.00;;;;;;;-2.94;94.20;101577.59;4962782;28;20146;-75
2024/01/10 07:13:23;;;;;;;0.10;0.10;;;;;;;-3.01;94.14;101571.97;4972919;28;20131;-75
2024/01/10 07:15:50;;;;;;;0.10;0.10;;;;;;;-3.11;94.38;101566.69;4958364;28;20049;-75
2024/01/10 07:18:16;;;;;;;0.10;0.10;;;;;;;-3.15;94.15;101559.94;4958197;28;20030;-74
2024/01/10 07:20:41;;;;;;;0.00;0.00;;;;;;;-3.17;94.41;101561.91;4931438;28;20118;-75
2024/01/10 07:23:07;;;;;;;0.10;0.10;;;;;;;-3.11;95.42;101572.06;4947627;28;20109;-74
2024/01/10 07:25:33;;;;;;;0.10;0.10;;;;;;;-3.09;94.43;101580.75;4969461;28;20038;-75
2024/01/10 07:27:59;;;;;;;0.10;0.10;;;;;;;-3.05;94.78;101582.16;4965726;28;20050;-75
2024/01/10 07:30:24;;;;;;;0.10;0.10;;;;;;;-3.00;95.17;101590.56;4960952;28;20039;-75
2024/01/10 07:32:50;;;;;;;0.10;0.10;;;;;;;-3.08;94.23;101571.75;4959505;28;20042;-72
2024/01/10 07:35:15;;;;;;;0.10;0.10;;;;;;;-3.03;94.61;101580.16;4964485;28;20544;-75
2024/01/10 07:37:50;;;;;;;0.00;0.00;;;;;;;-3.03;94.81;101579.34;4954607;28;20117;-73
2024/01/10 07:40:16;;;;;;;0.00;0.00;;;;;;;-3.10;95.21;101572.88;4955462;28;20061;-74
2024/01/10 07:46:26;;;;;;;0.10;0.10;;;;;;;-3.27;94.70;101542.38;4877378;28;20148;-76
2024/01/10 07:49:16;;;;;;;0.10;0.10;;;;;;;-3.30;94.82;101542.69;4985867;28;20023;-73
2024/01/10 07:51:45;;;;;;;0.00;0.00;;;;;;;-3.05;95.87;101587.50;4974430;28;20089;-76
2024/01/10 07:54:13;;;;;;;0.10;0.10;;;;;;;-2.96;94.91;101595.63;4950500;28;20043;-74
2024/01/10 07:56:40;;;;;;;0.10;0.10;;;;;;;-3.06;95.71;101574.28;4975710;28;20537;-76
2024/01/10 07:59:13;;;;;;;0.10;0.10;;;;;;;-3.01;95.48;101567.50;4961820;28;20088;-74
2024/01/10 08:01:45;;;;;;;0.10;0.10;;;;;;;-2.93;95.30;101582.81;4962521;28;20091;-76
2024/01/10 08:04:11;;;;;;;0.10;0.10;;;;;;;-2.74;95.74;101600.59;4956359;28;20037;-75
2024/01/10 08:06:44;;;;;;;0.00;0.00;;;;;;;-2.78;96.74;101588.50;4950458;28;20474;-74
2024/01/10 08:09:12;;;;;;;0.00;0.00;;;;;;;-2.82;96.10;101571.03;4978019;28;20038;-74
2024/01/10 08:11:40;;;;;;;0.10;0.10;;;;;;;-2.74;95.80;101579.16;4957638;28;20048;-74
2024/01/10 08:14:05;;;;;;;0.10;0.10;;;;;;;-2.60;96.44;101590.34;4969330;28;20129;-75
2024/01/10 08:16:32;;;;;;;0.10;0.10;;;;;;;-2.64;95.81;101579.97;4985641;28;20083;-74
2024/01/10 08:19:16;;;;;;;0.10;0.10;;;;;;;-2.65;96.51;101567.53;4967939;28;20069;-75
2024/01/10 08:21:41;;;;;;;0.10;0.10;;;;;;;-2.52;96.26;101585.94;4960099;28;20033;-74
2024/01/10 08:24:14;;;;;;;0.00;0.00;;;;;;;-2.44;96.75;101584.34;4965799;28;20034;-75
2024/01/10 08:26:40;;;;;;;0.10;0.10;;;;;;;-2.34;96.74;101585.94;4960307;28;20034;-75
2024/01/10 08:29:05;;;;;;;0.00;0.00;;;;;;;-2.16;96.37;101606.53;4959963;28;20088;-74
2024/01/10 08:31:33;;;;;;;0.00;0.00;;;;;;;-2.21;97.01;101579.38;4955309;28;20062;-74
2024/01/10 08:33:58;;;;;;;0.00;0.00;;;;;;;-1.96;96.41;101616.13;4967707;28;20032;-74
2024/01/10 08:36:24;;;;;;;0.00;0.00;;;;;;;-1.97;96.38;101593.00;4955366;28;20130;-75
2024/01/10 08:38:50;;;;;;;0.00;0.00;;;;;;;-1.84;96.34;101613.19;4964851;28;20110;-75
2024/01/10 08:41:16;;;;;;;0.00;0.00;;;;;;;-1.76;95.78;101615.94;4959097;28;20022;-75
2024/01/10 08:43:41;;;;;;;0.00;0.00;;;;;;;-1.70;95.84;101623.38;4952143;28;20041;-75
2024/01/10 08:46:11;;;;;;;0.00;0.00;;;;;;;-1.76;95.74;101599.84;4956741;28;20027;-74
2024/01/10 08:48:36;;;;;;;0.00;0.00;;;;;;;-1.70;95.21;101598.38;4962729;28;20019;-74
2024/01/10 08:51:05;;;;;;;0.00;0.00;;;;;;;-1.62;95.72;101596.59;4959393;28;20398;-74
2024/01/10 08:53:33;;;;;;;0.10;0.10;;;;;;;-1.49;95.54;101606.06;4978928;28;20119;-75
2024/01/10 08:55:58;;;;;;;0.00;0.00;;;;;;;-1.38;95.42;101603.13;4956226;28;20042;-79
2024/01/10 08:58:24;;;;;;;0.00;0.00;;;;;;;-1.39;94.27;101593.38;4967339;28;20029;-75
2024/01/10 09:00:51;;;;;;;0.10;0.10;;;;;;;-1.24;94.52;101596.34;4965006;28;20089;-74
2024/01/10 09:03:17;;;;;;;0.10;0.10;;;;;;;-1.10;94.21;101611.00;4971703;28;20042;-75
2024/01/10 09:05:42;;;;;;;0.10;0.10;;;;;;;-1.07;93.90;101598.13;4946295;28;20034;-75
2024/01/10 09:08:08;;;;;;;0.10;0.10;;;;;;;-0.92;93.37;101608.22;4972539;28;20033;-75
2024/01/10 09:10:33;;;;;;;0.00;0.00;;;;;;;-0.71;92.93;101629.31;4964869;28;20022;-75
2024/01/10 09:13:06;;;;;;;0.10;0.10;;;;;;;-0.60;92.88;101634.41;4961989;28;20023;-75
2024/01/10 09:15:32;;;;;;;0.00;0.00;;;;;;;-0.68;92.14;101610.19;4981073;28;20022;-74
2024/01/10 09:17:57;;;;;;;0.00;0.00;;;;;;;-0.41;91.69;101643.16;4967680;28;20476;-76
2024/01/10 09:20:23;;;;;;;0.00;0.00;;;;;;;-0.45;91.77;101617.63;4948824;28;20031;-74
2024/01/10 09:22:49;;;;;;;0.00;0.00;;;;;;;-0.36;91.51;101619.34;4947952;28;20037;-73
2024/01/10 09:25:14;;;;;;;0.10;0.10;;;;;;;-0.21;90.49;101631.13;4975603;28;20022;-73
2024/01/10 09:27:44;;;;;;;0.00;0.00;;;;;;;0.00;89.69;101637.91;4951197;28;20447;-75
2024/01/10 09:30:10;;;;;;;0.10;0.10;;;;;;;0.13;89.26;101640.06;4958916;28;20027;-73
2024/01/10 09:32:36;;;;;;;0.00;0.00;;;;;;;0.26;89.51;101644.97;4988637;28;20148;-74
2024/01/10 09:35:02;;;;;;;0.00;0.00;;;;;;;0.34;89.08;101631.50;4956856;28;20086;-74
2024/01/10 09:37:28;;;;;;;0.10;0.10;;;;;;;0.38;88.27;101611.34;4946462;28;20034;-75
2024/01/10 09:39:54;;;;;;;0.00;0.00;;;;;;;1.12;89.42;101613.81;4958460;28;20082;-74
2024/01/10 09:42:25;;;;;;;0.10;0.10;;;;;;;3.98;86.86;101632.03;4980515;28;20014;-74
2024/01/10 09:44:53;;;;;;;0.10;0.10;;;;;;;7.82;69.70;101637.16;4941777;28;20033;-74
2024/01/10 09:47:20;;;;;;;0.00;0.00;;;;;;;10.78;56.71;101651.91;4950173;28;20027;-74
2024/01/10 09:49:51;;;;;;;0.10;0.10;;;;;;;13.19;49.15;101652.03;4969728;28;20174;-74
2024/01/10 09:52:24;;;;;;;0.00;0.00;;;;;;;15.03;43.85;101656.94;4935522;28;20023;-74
2024/01/10 09:54:56;;;;;;;0.03;0.03;;;;;;;16.57;40.38;101658.25;4968619;28;20037;-75
2024/01/10 09:57:23;;;;;;;0.00;0.00;;;;;;;17.54;37.96;101659.16;4965788;28;20836;-74
2024/01/10 09:59:51;;;;;;;0.00;0.00;;;;;;;18.73;36.30;101656.44;4984574;28;20118;-74
2024/01/10 10:02:18;;;;;;;0.00;0.00;;;;;;;19.86;34.45;101669.09;4966989;28;20416;-75
2024/01/10 10:04:56;;;;;;;0.00;0.00;;;;;;;20.39;32.49;101656.91;4972126;28;20050;-74
2024/01/10 10:07:22;;;;;;;0.10;0.10;;;;;;;21.12;31.06;101634.22;4954969;28;20041;-75
2024/01/10 10:09:47;;;;;;;0.00;0.00;;;;;;;21.65;30.34;101646.78;4967582;28;20042;-74
2024/01/10 10:12:13;;;;;;;0.00;0.00;;;;;;;22.58;29.75;101633.50;4965579;28;20030;-74
2024/01/10 10:14:38;;;;;;;0.00;0.00;;;;;;;23.16;28.40;101643.66;4966950;28;20117;-74
2024/01/10 10:17:20;;;;;;;0.10;0.10;;;;;;;23.22;26.36;101629.53;4984338;28;20038;-74
2024/01/10 10:19:48;;;;;;;0.00;0.00;;;;;;;23.57;26.84;101636.06;4972065;28;20037;-74
2024/01/10 10:22:14;;;;;;;0.00;0.00;;;;;;;24.71;26.27;101636.09;4976510;28;20104;-75
2024/01/10 10:24:48;;;;;;;0.00;0.00;;;;;;;25.03;24.09;101622.66;4963889;28;20035;-77
2024/01/10 10:27:14;;;;;;;0.00;0.00;;;;;;;24.95;24.19;101631.88;4957771;28;20022;-75
2024/01/10 10:29:40;;;;;;;0.00;0.00;;;;;;;25.14;23.98;101623.88;4959566;28;20030;-74
2024/01/10 10:32:08;;;;;;;0.00;0.00;;;;;;;26.19;23.99;101633.63;4955220;28;20057;-75
2024/01/10 10:34:33;;;;;;;0.00;0.00;;;;;;;26.45;21.62;101616.53;4989606;28;20040;-76
2024/01/10 10:36:59;;;;;;;0.00;0.00;;;;;;;27.04;22.15;101620.16;4971842;28;20018;-75
2024/01/10 10:39:25;;;;;;;0.00;0.00;;;;;;;26.87;21.78;101613.63;4970609;28;20037;-74
2024/01/10 10:41:54;;;;;;;0.00;0.00;;;;;;;26.97;20.47;101607.53;4974124;28;20153;-74
2024/01/10 10:44:24;;;;;;;0.10;0.10;;;;;;;27.33;21.26;101627.53;4957323;28;20019;-74
2024/01/10 10:46:54;;;;;;;0.00;0.00;;;;;;;27.98;20.94;101621.97;4963427;28;20031;-76
2024/01/10 10:49:29;;;;;;;0.00;0.00;;;;;;;28.51;20.17;101609.78;4981006;28;20018;-75
2024/01/10 10:51:59;;;;;;;0.00;0.00;;;;;;;29.30;19.75;101616.63;4963602;28;20500;-75
2024/01/10 10:54:32;;;;;;;0.00;0.00;;;;;;;29.45;18.94;101612.13;4951427;28;20019;-75
2024/01/10 10:57:01;;;;;;;0.00;0.00;;;;;;;29.44;18.84;101602.88;4924009;29;20027;-75
2024/01/10 10:59:29;;;;;;;0.00;0.00;;;;;;;29.29;18.22;101604.53;4968217;28;20023;-74
2024/01/10 11:01:58;;;;;;;0.00;0.00;;;;;;;29.46;18.93;101608.16;4940338;28;20045;-73
2024/01/10 11:04:24;;;;;;;0.00;0.00;;;;;;;29.96;17.44;101600.78;4966150;28;20077;-74
2024/01/10 11:06:52;;;;;;;0.00;0.00;;;;;;;30.15;17.17;101619.72;4968766;28;20023;-75
2024/01/10 11:09:22;;;;;;;0.00;0.00;;;;;;;29.62;17.54;101623.00;4932425;28;20022;-75
2024/01/10 11:12:14;;;;;;;0.00;0.00;;;;;;;29.31;17.01;101621.91;4953470;28;20413;-76
2024/01/10 11:14:58;;;;;;;0.00;0.00;;;;;;;29.73;16.69;101621.25;4960313;28;20428;-75
2024/01/10 11:18:14;;;;;;;0.00;0.00;;;;;;;29.56;16.54;101635.75;4963994;28;20031;-74
2024/01/10 11:21:02;;;;;;;0.00;0.00;;;;;;;29.27;16.97;101621.00;4929777;29;20083;-72
2024/01/10 11:23:39;;;;;;;0.00;0.00;;;;;;;29.97;16.86;101622.16;4936856;28;20115;-75
2024/01/10 11:26:05;;;;;;;0.00;0.00;;;;;;;30.61;16.79;101608.53;4936892;28;20581;-74
2024/01/10 11:28:35;;;;;;;0.00;0.00;;;;;;;31.22;15.92;101602.28;4940499;28;20122;-75
2024/01/10 11:31:05;;;;;;;0.00;0.00;;;;;;;31.39;16.00;101583.97;4945131;28;20059;-75
2024/01/10 11:33:39;;;;;;;0.00;0.00;;;;;;;31.36;15.63;101588.38;4936476;28;20074;-75